createdAt,value
2022-11-22T00:00:39.018Z,14.60
2022-11-22T00:03:05.915Z,13.27
2022-11-22T00:05:32.702Z,13.80
2022-11-22T00:08:00.719Z,12.27
2022-11-22T00:10:27.536Z,12.80
2022-11-22T00:12:54.668Z,12.35
2022-11-22T00:15:21.389Z,13.73
2022-11-22T00:17:49.030Z,12.95
2022-11-22T00:20:15.893Z,12.70
2022-11-22T00:22:44.734Z,13.50
2022-11-22T00:25:11.805Z,13.18
2022-11-22T00:27:41.710Z,13.50
2022-11-22T00:30:09.128Z,13.43
2022-11-22T00:32:35.843Z,12.60
2022-11-22T00:35:03.007Z,12.82
2022-11-22T00:37:29.693Z,13.55
2022-11-22T00:39:56.371Z,13.18
2022-11-22T00:42:23.110Z,13.52
2022-11-22T00:44:49.806Z,13.18
2022-11-22T00:47:16.506Z,14.20
2022-11-22T00:49:43.125Z,13.07
2022-11-22T00:52:09.974Z,14.10
2022-11-22T00:54:36.724Z,13.50
2022-11-22T00:57:03.486Z,13.65
2022-11-22T00:59:30.557Z,13.65
2022-11-22T01:01:57.575Z,13.68
2022-11-22T01:04:24.265Z,14.40
2022-11-22T01:06:51.009Z,14.25
2022-11-22T01:09:20.652Z,13.77
2022-11-22T01:11:47.771Z,14.10
2022-11-22T01:14:15.137Z,14.25
2022-11-22T01:16:41.879Z,14.20
2022-11-22T01:19:08.824Z,13.70
2022-11-22T01:21:35.428Z,15.75
2022-11-22T01:24:02.136Z,14.63
2022-11-22T01:26:28.886Z,13.50
2022-11-22T01:28:56.615Z,14.02
2022-11-22T01:31:23.313Z,14.23
2022-11-22T01:33:49.988Z,15.05
2022-11-22T01:36:16.703Z,14.15
2022-11-22T01:38:43.379Z,14.73
2022-11-22T01:41:10.071Z,14.85
2022-11-22T01:43:39.938Z,16.10
2022-11-22T01:46:10.324Z,15.95
2022-11-22T01:48:47.394Z,15.85
2022-11-22T01:51:27.597Z,15.18
2022-11-22T01:53:57.370Z,15.38
2022-11-22T01:56:24.740Z,15.43
2022-11-22T01:58:56.672Z,15.32
2022-11-22T02:01:29.777Z,15.75
2022-11-22T02:04:00.830Z,15.73
2022-11-22T02:06:34.744Z,15.75
2022-11-22T02:09:09.402Z,15.27
2022-11-22T02:11:39.158Z,16.20
2022-11-22T02:14:09.611Z,16.05
2022-11-22T02:16:37.464Z,15.55
2022-11-22T02:19:05.268Z,15.60
2022-11-22T02:21:31.973Z,15.60
2022-11-22T02:24:07.804Z,15.43
2022-11-22T02:26:34.554Z,15.70
2022-11-22T02:29:04.865Z,16.77
2022-11-22T02:31:35.622Z,16.15
2022-11-22T02:34:02.398Z,15.35
2022-11-22T02:36:30.580Z,16.35
2022-11-22T02:38:57.296Z,16.40
2022-11-22T02:41:24.181Z,16.02
2022-11-22T02:43:51.002Z,15.82
2022-11-22T02:46:27.029Z,16.27
2022-11-22T02:48:53.745Z,15.63
2022-11-22T02:51:20.672Z,17.35
2022-11-22T02:53:49.335Z,16.25
2022-11-22T02:56:16.743Z,16.40
2022-11-22T02:58:44.107Z,15.35
2022-11-22T03:01:11.939Z,15.05
2022-11-22T03:03:38.708Z,15.95
2022-11-22T03:06:05.471Z,16.05
2022-11-22T03:08:33.486Z,15.60
2022-11-22T03:11:00.594Z,16.10
2022-11-22T03:13:27.320Z,15.77
2022-11-22T03:15:54.050Z,17.50
2022-11-22T03:18:20.784Z,15.32
2022-11-22T03:20:47.416Z,17.45
2022-11-22T03:23:14.054Z,16.15
2022-11-22T03:25:40.713Z,16.98
2022-11-22T03:28:07.859Z,16.63
2022-11-22T03:30:34.659Z,15.88
2022-11-22T03:33:04.364Z,17.25
2022-11-22T03:35:31.189Z,16.65
2022-11-22T03:37:57.868Z,17.17
2022-11-22T03:40:25.535Z,16.77
2022-11-22T03:42:52.197Z,17.02
2022-11-22T03:45:18.902Z,16.88
2022-11-22T03:47:45.539Z,18.20
2022-11-22T03:50:12.253Z,16.52
2022-11-22T03:52:38.952Z,17.25
2022-11-22T03:55:05.657Z,16.63
2022-11-22T03:57:32.342Z,17.55
2022-11-22T03:59:59.007Z,17.23
2022-11-22T04:02:25.731Z,18.35
2022-11-22T04:04:52.453Z,17.50
2022-11-22T04:07:19.117Z,18.13
2022-11-22T04:09:45.787Z,18.08
2022-11-22T04:12:12.511Z,17.42
2022-11-22T04:14:57.783Z,17.83
2022-11-22T04:17:45.151Z,17.38
2022-11-22T04:20:45.621Z,17.85
2022-11-22T04:23:14.588Z,18.42
2022-11-22T04:25:43.832Z,16.88
2022-11-22T04:28:11.687Z,18.00
2022-11-22T04:30:56.947Z,19.08
2022-11-22T04:33:23.806Z,17.80
2022-11-22T04:35:51.146Z,17.23
2022-11-22T04:38:18.299Z,18.42
2022-11-22T04:40:45.240Z,17.92
2022-11-22T04:43:41.091Z,17.58
2022-11-22T04:46:08.306Z,18.25
2022-11-22T04:48:35.254Z,19.23
2022-11-22T04:51:21.168Z,18.33
2022-11-22T04:53:47.950Z,20.27
2022-11-22T04:56:18.087Z,27.23
2022-11-22T04:58:44.759Z,22.90
2022-11-22T05:01:11.489Z,22.15
2022-11-22T05:03:38.161Z,20.27
2022-11-22T05:06:05.695Z,18.85
2022-11-22T05:08:32.813Z,21.70
2022-11-22T05:10:59.934Z,19.75
2022-11-22T05:13:28.287Z,20.30
2022-11-22T05:15:55.535Z,21.48
2022-11-22T05:18:23.144Z,20.25
2022-11-22T05:20:50.272Z,19.55
2022-11-22T05:23:36.111Z,20.13
2022-11-22T05:26:02.745Z,20.35
2022-11-22T05:28:31.094Z,19.83
2022-11-22T05:30:57.772Z,19.67
2022-11-22T05:33:24.524Z,22.20
2022-11-22T05:35:51.590Z,20.92
2022-11-22T05:38:18.378Z,21.35
2022-11-22T05:40:45.184Z,21.63
2022-11-22T05:43:11.844Z,21.98
2022-11-22T05:45:38.678Z,22.13
2022-11-22T05:48:05.490Z,21.58
2022-11-22T05:50:32.235Z,22.15
2022-11-22T05:53:03.225Z,22.77
2022-11-22T05:55:30.859Z,22.10
2022-11-22T05:58:01.599Z,22.48
2022-11-22T06:00:29.971Z,22.30
2022-11-22T06:03:01.722Z,23.20
2022-11-22T06:05:29.113Z,21.83
2022-11-22T06:08:03.104Z,22.13
2022-11-22T06:10:29.977Z,22.75
2022-11-22T06:12:56.752Z,23.83
2022-11-22T06:15:23.493Z,23.08
2022-11-22T06:17:50.472Z,24.23
2022-11-22T06:20:17.235Z,23.77
2022-11-22T06:22:44.037Z,24.27
2022-11-22T06:25:10.996Z,24.50
2022-11-22T06:27:37.628Z,23.73
2022-11-22T06:30:04.539Z,23.38
2022-11-22T06:32:33.854Z,23.65
2022-11-22T06:35:01.551Z,25.83
2022-11-22T06:37:28.990Z,24.45
2022-11-22T06:39:55.632Z,25.45
2022-11-22T06:42:22.235Z,25.63
2022-11-22T06:44:48.885Z,24.77
2022-11-22T06:47:17.636Z,24.38
2022-11-22T06:49:45.551Z,23.42
2022-11-22T06:52:12.415Z,24.75
2022-11-22T06:54:39.243Z,23.15
2022-11-22T06:57:05.905Z,23.92
2022-11-22T06:59:32.817Z,23.95
2022-11-22T07:02:05.789Z,23.45
2022-11-22T07:04:33.237Z,23.33
2022-11-22T07:06:59.847Z,22.73
2022-11-22T07:09:26.521Z,21.70
2022-11-22T07:11:53.224Z,23.20
2022-11-22T07:14:19.926Z,22.27
2022-11-22T07:16:46.507Z,22.85
2022-11-22T07:19:13.216Z,22.08
2022-11-22T07:21:39.984Z,20.83
2022-11-22T07:24:07.435Z,21.80
2022-11-22T07:26:34.052Z,21.25
2022-11-22T07:29:00.729Z,21.98
2022-11-22T07:31:28.355Z,22.15
2022-11-22T07:33:57.121Z,22.65
2022-11-22T07:36:24.139Z,21.92
2022-11-22T07:38:51.596Z,21.95
2022-11-22T07:41:19.997Z,21.05
2022-11-22T07:43:47.464Z,20.30
2022-11-22T07:46:32.164Z,20.13
2022-11-22T07:49:00.105Z,20.17
2022-11-22T07:51:27.748Z,21.50
2022-11-22T07:53:55.818Z,21.38
2022-11-22T07:56:22.634Z,20.13
2022-11-22T07:58:58.727Z,20.33
2022-11-22T08:01:27.576Z,19.77
2022-11-22T08:03:54.400Z,21.02
2022-11-22T08:06:21.169Z,21.27
2022-11-22T08:08:47.785Z,21.52
2022-11-22T08:11:14.509Z,20.73
2022-11-22T08:13:41.410Z,20.23
2022-11-22T08:16:15.457Z,20.40
2022-11-22T08:18:46.440Z,18.98
2022-11-22T08:21:14.703Z,20.10
2022-11-22T08:23:42.617Z,20.85
2022-11-22T08:26:12.686Z,20.77
2022-11-22T08:28:40.083Z,20.77
2022-11-22T08:31:09.398Z,20.58
2022-11-22T08:33:36.600Z,20.90
2022-11-22T08:36:03.415Z,19.38
2022-11-22T08:38:36.315Z,20.40
2022-11-22T08:41:04.300Z,20.80
2022-11-22T08:43:31.980Z,20.17
2022-11-22T08:45:59.615Z,20.73
2022-11-22T08:48:26.913Z,20.33
2022-11-22T08:50:58.823Z,20.42
2022-11-22T08:53:25.879Z,20.23
2022-11-22T08:55:53.396Z,21.35
2022-11-22T08:58:20.184Z,21.38
2022-11-22T09:00:46.961Z,21.52
2022-11-22T09:03:13.695Z,21.55
2022-11-22T09:08:29.013Z,21.30
2022-11-22T09:11:06.501Z,21.83
2022-11-22T09:13:33.681Z,21.65
2022-11-22T09:16:11.591Z,22.13
2022-11-22T09:18:38.863Z,21.27
2022-11-22T09:21:08.261Z,23.52
2022-11-22T09:23:35.543Z,24.00
2022-11-22T09:26:11.253Z,22.67
2022-11-22T09:28:37.918Z,23.65
2022-11-22T09:31:07.463Z,23.65
2022-11-22T09:33:35.605Z,22.70
2022-11-22T09:36:13.076Z,23.17
2022-11-22T09:38:40.329Z,22.20
2022-11-22T09:41:16.344Z,24.60
2022-11-22T09:44:00.438Z,23.60
2022-11-22T09:46:47.443Z,21.70
2022-11-22T09:49:24.219Z,21.73
2022-11-22T09:52:15.790Z,22.88
2022-11-22T09:54:52.260Z,21.42
2022-11-22T09:57:23.896Z,20.05
2022-11-22T10:00:04.033Z,20.75
2022-11-22T10:03:00.018Z,20.05
2022-11-22T10:05:42.725Z,18.83
2022-11-22T10:08:27.961Z,20.42
2022-11-22T10:10:56.157Z,20.05
2022-11-22T10:13:30.325Z,21.48
2022-11-22T10:16:28.090Z,20.65
2022-11-22T10:19:01.168Z,21.20
2022-11-22T10:21:27.879Z,21.00
2022-11-22T10:23:54.761Z,20.67
2022-11-22T10:26:25.730Z,20.77
2022-11-22T10:29:07.285Z,20.95
2022-11-22T10:31:43.366Z,21.17
2022-11-22T10:34:17.128Z,20.23
2022-11-22T10:36:47.027Z,21.38
2022-11-22T10:39:19.769Z,22.00
2022-11-22T10:42:05.453Z,21.88
2022-11-22T10:44:47.378Z,20.02
2022-11-22T10:47:41.557Z,20.80
2022-11-22T10:50:17.181Z,20.13
2022-11-22T10:52:56.370Z,21.23
2022-11-22T10:55:35.409Z,20.85
2022-11-22T10:58:34.506Z,21.65
2022-11-22T11:01:30.967Z,19.30
2022-11-22T11:03:59.526Z,20.83
2022-11-22T11:07:10.372Z,20.75
2022-11-22T11:12:20.099Z,20.08
2022-11-22T11:14:49.972Z,20.45
2022-11-22T11:17:27.803Z,20.67
2022-11-22T11:19:58.098Z,20.15
2022-11-22T11:22:58.723Z,22.25
2022-11-22T11:25:40.826Z,21.10
2022-11-22T11:28:11.375Z,20.90
2022-11-22T11:30:50.147Z,20.88
2022-11-22T11:33:20.639Z,21.63
2022-11-22T11:35:47.757Z,19.90
2022-11-22T11:38:50.399Z,21.48
2022-11-22T11:41:41.932Z,20.33
2022-11-22T11:44:25.807Z,21.50
2022-11-22T11:46:52.541Z,20.23
2022-11-22T11:49:23.785Z,20.33
2022-11-22T11:52:10.271Z,19.95
2022-11-22T11:54:45.030Z,20.92
2022-11-22T11:57:23.352Z,20.48
2022-11-22T11:59:50.477Z,20.25
2022-11-22T12:02:26.728Z,20.15
2022-11-22T12:05:04.069Z,19.73
2022-11-22T12:07:34.085Z,20.65
2022-11-22T12:10:01.412Z,20.58
2022-11-22T12:12:46.959Z,20.55
2022-11-22T12:15:21.513Z,21.83
2022-11-22T12:18:23.264Z,20.48
2022-11-22T12:21:03.399Z,20.10
2022-11-22T12:23:45.471Z,19.92
2022-11-22T12:26:16.466Z,20.65
2022-11-22T12:28:43.451Z,21.08
2022-11-22T12:31:27.866Z,20.27
2022-11-22T12:34:01.160Z,20.20
2022-11-22T12:36:40.226Z,20.27
2022-11-22T12:39:11.718Z,21.75
2022-11-22T12:41:40.395Z,20.25
2022-11-22T12:44:12.237Z,20.15
2022-11-22T12:46:50.538Z,20.83
2022-11-22T12:49:32.317Z,20.92
2022-11-22T12:52:25.910Z,20.27
2022-11-22T12:55:16.960Z,20.35
2022-11-22T12:58:05.262Z,19.52
2022-11-22T13:00:36.451Z,21.58
2022-11-22T13:03:13.535Z,20.80
2022-11-22T13:05:45.132Z,20.70
2022-11-22T13:08:19.532Z,19.33
2022-11-22T13:10:53.734Z,19.30
2022-11-22T13:13:27.630Z,19.65
2022-11-22T13:15:56.024Z,20.10
2022-11-22T13:18:33.144Z,20.27
2022-11-22T13:21:11.459Z,19.85
2022-11-22T13:24:12.040Z,20.33
2022-11-22T13:27:10.089Z,19.75
2022-11-22T13:29:37.227Z,20.35
2022-11-22T13:32:16.613Z,18.80
2022-11-22T13:35:01.082Z,19.92
2022-11-22T13:37:32.975Z,20.42
2022-11-22T13:40:11.509Z,19.60
2022-11-22T13:42:38.603Z,19.15
2022-11-22T13:45:20.746Z,19.88
2022-11-22T13:47:47.708Z,20.90
2022-11-22T13:50:44.504Z,20.05
2022-11-22T13:53:24.104Z,19.05
2022-11-22T13:55:50.957Z,20.65
2022-11-22T13:58:27.045Z,19.52
2022-11-22T14:00:55.164Z,20.92
2022-11-22T14:03:38.108Z,20.10
2022-11-22T14:06:29.156Z,19.70
2022-11-22T14:09:27.462Z,19.65
2022-11-22T14:11:57.395Z,19.25
2022-11-22T14:14:55.068Z,19.20
2022-11-22T14:17:51.283Z,19.65
2022-11-22T14:20:30.172Z,18.80
2022-11-22T14:23:18.626Z,19.65
2022-11-22T14:26:30.417Z,19.95
2022-11-22T14:29:28.054Z,19.30
2022-11-22T14:32:11.203Z,17.90
2022-11-22T14:35:03.729Z,18.40
2022-11-22T14:37:33.867Z,18.00
2022-11-22T14:40:06.593Z,18.55
2022-11-22T14:42:40.151Z,18.73
2022-11-22T14:45:10.263Z,18.83
2022-11-22T14:47:59.951Z,18.85
2022-11-22T14:50:28.600Z,18.73
2022-11-22T14:53:04.614Z,18.17
2022-11-22T14:55:33.040Z,18.50
2022-11-22T14:58:06.828Z,19.15
2022-11-22T15:00:41.964Z,18.40
2022-11-22T15:03:30.436Z,18.88
2022-11-22T15:09:11.391Z,18.27
2022-11-22T15:09:52.433Z,17.25
2022-11-22T15:12:27.204Z,19.08
2022-11-22T15:59:44.356Z,17.42
2022-11-22T16:02:18.384Z,17.52
2022-11-22T16:06:06.252Z,17.67
2022-11-22T16:07:39.600Z,19.00
2022-11-22T16:10:16.987Z,18.60
2022-11-22T16:12:47.527Z,19.10
2022-11-22T16:15:28.386Z,20.45
2022-11-22T16:18:07.792Z,19.13
2022-11-22T16:20:39.679Z,20.23
2022-11-22T16:23:09.088Z,19.33
2022-11-22T16:25:41.984Z,21.10
2022-11-22T16:28:44.027Z,20.35
2022-11-22T16:31:21.676Z,19.20
2022-11-22T16:33:48.981Z,18.88
2022-11-22T16:36:16.926Z,20.08
2022-11-22T16:38:44.176Z,19.52
2022-11-22T16:41:25.517Z,20.55
2022-11-22T16:43:54.436Z,21.00
2022-11-22T16:46:21.494Z,19.77
2022-11-22T16:48:48.347Z,19.15
2022-11-22T16:51:21.277Z,20.20
2022-11-22T16:54:16.540Z,21.00
2022-11-22T16:56:49.413Z,19.17
2022-11-22T16:59:16.274Z,18.70
2022-11-22T17:01:44.226Z,19.67
2022-11-22T17:04:25.442Z,20.65
2022-11-22T17:06:52.459Z,20.88
2022-11-22T17:09:21.984Z,19.95
2022-11-22T17:11:49.586Z,19.92
2022-11-22T17:14:18.376Z,21.00
2022-11-22T17:16:48.298Z,20.27
2022-11-22T17:19:52.008Z,20.48
2022-11-22T17:22:06.941Z,20.48
2022-11-22T17:24:34.605Z,21.30
2022-11-22T17:27:01.553Z,21.00
2022-11-22T17:29:49.255Z,22.50
2022-11-22T17:32:15.115Z,21.20
2022-11-22T17:34:42.205Z,22.02
2022-11-22T17:37:12.760Z,22.10
2022-11-22T17:39:40.194Z,21.75
2022-11-22T17:42:07.345Z,21.02
2022-11-22T17:44:35.105Z,21.75
2022-11-22T17:47:33.079Z,21.52
2022-11-22T17:50:05.339Z,20.67
2022-11-22T17:52:32.300Z,22.60
2022-11-22T17:55:05.563Z,23.15
2022-11-22T17:57:34.022Z,21.67
2022-11-22T18:00:00.729Z,21.50
2022-11-22T18:02:27.542Z,22.75
2022-11-22T18:04:55.801Z,21.45
2022-11-22T18:07:24.251Z,22.70
2022-11-22T18:09:51.706Z,21.33
2022-11-22T18:12:19.032Z,22.80
2022-11-22T18:14:47.307Z,22.45
2022-11-22T18:17:14.534Z,22.45
2022-11-22T18:19:41.194Z,21.80
2022-11-22T18:22:08.051Z,22.30
2022-11-22T18:24:35.034Z,22.73
2022-11-22T18:27:02.622Z,21.17
2022-11-22T18:29:44.850Z,22.95
2022-11-22T18:32:11.962Z,23.00
2022-11-22T18:34:39.047Z,22.33
2022-11-22T18:37:05.960Z,23.48
2022-11-22T18:39:38.221Z,23.55
2022-11-22T18:42:07.944Z,23.65
2022-11-22T18:44:35.724Z,23.75
2022-11-22T18:47:02.592Z,23.63
2022-11-22T18:49:29.914Z,21.48
2022-11-22T18:51:57.076Z,23.17
2022-11-22T18:54:23.819Z,22.92
2022-11-22T18:56:51.616Z,25.45
2022-11-22T18:59:18.652Z,24.17
2022-11-22T19:01:45.571Z,22.98
2022-11-22T19:04:14.414Z,24.23
2022-11-22T19:06:42.107Z,23.33
2022-11-22T19:09:08.965Z,23.58
2022-11-22T19:11:35.841Z,23.63
2022-11-22T19:14:02.809Z,23.60
2022-11-22T19:16:30.482Z,24.67
2022-11-22T19:18:58.937Z,24.88
2022-11-22T19:21:28.069Z,24.23
2022-11-22T19:23:55.847Z,24.27
2022-11-22T19:26:24.653Z,24.92
2022-11-22T19:28:56.570Z,25.35
2022-11-22T19:31:29.303Z,25.30
2022-11-22T19:33:57.464Z,25.52
2022-11-22T19:36:32.168Z,23.52
2022-11-22T19:38:59.281Z,25.55
2022-11-22T19:41:26.005Z,25.02
2022-11-22T19:43:52.782Z,23.85
2022-11-22T19:46:20.113Z,24.70
2022-11-22T19:48:51.725Z,24.45
2022-11-22T19:51:18.633Z,24.30
2022-11-22T19:53:45.315Z,24.48
2022-11-22T19:56:17.825Z,23.25
2022-11-22T19:58:50.443Z,23.10
2022-11-22T20:01:17.551Z,26.23
2022-11-22T20:03:45.078Z,24.45
2022-11-22T20:06:13.605Z,23.73
2022-11-22T20:08:40.496Z,22.50
2022-11-22T20:11:09.480Z,24.48
2022-11-22T20:13:38.419Z,23.42
2022-11-22T20:16:08.489Z,23.58
2022-11-22T20:18:35.529Z,23.05
2022-11-22T20:21:03.998Z,23.02
2022-11-22T20:23:32.236Z,23.05
2022-11-22T20:26:09.218Z,22.55
2022-11-22T20:28:39.992Z,22.50
2022-11-22T20:31:14.454Z,24.33
2022-11-22T20:33:44.016Z,24.13
2022-11-22T20:36:14.071Z,23.02
2022-11-22T20:38:41.956Z,25.10
2022-11-22T20:41:10.247Z,28.17
2022-11-22T20:43:37.462Z,54.78
2022-11-22T20:46:09.939Z,29.38
2022-11-22T20:48:37.836Z,44.15
2022-11-22T20:51:07.927Z,26.92
2022-11-22T20:53:35.302Z,23.10
2022-11-22T20:56:02.476Z,22.58
2022-11-22T20:58:32.368Z,23.92
2022-11-22T21:00:59.194Z,24.85
2022-11-22T21:03:27.478Z,24.27
2022-11-22T21:05:55.238Z,25.80
2022-11-22T21:08:22.833Z,22.85
2022-11-22T21:10:49.632Z,22.92
2022-11-22T21:13:17.371Z,23.45
2022-11-22T21:15:44.667Z,23.40
2022-11-22T21:18:27.613Z,23.85
2022-11-22T21:20:54.245Z,24.13
2022-11-22T21:23:21.385Z,25.60
2022-11-22T21:25:51.564Z,46.90
2022-11-22T21:28:18.492Z,26.55
2022-11-22T21:30:45.267Z,27.88
2022-11-22T21:33:12.434Z,23.98
2022-11-22T21:35:39.262Z,24.08
2022-11-22T21:38:06.075Z,22.95
2022-11-22T21:40:33.000Z,25.75
2022-11-22T21:42:59.766Z,23.25
2022-11-22T21:45:26.598Z,22.35
2022-11-22T21:47:53.278Z,21.30
2022-11-22T21:50:20.590Z,21.27
2022-11-22T21:52:47.306Z,23.08
2022-11-22T21:55:15.546Z,23.02
2022-11-22T21:57:42.278Z,21.02
2022-11-22T22:00:10.145Z,22.40
2022-11-22T22:02:36.842Z,23.30
2022-11-22T22:05:03.713Z,23.08
2022-11-22T22:07:51.398Z,21.80
2022-11-22T22:10:17.325Z,22.15
2022-11-22T22:12:44.813Z,22.27
2022-11-22T22:15:14.928Z,22.73
2022-11-22T22:17:41.854Z,23.00
2022-11-22T22:20:08.985Z,23.05
2022-11-22T22:22:38.719Z,22.80
2022-11-22T22:25:06.429Z,22.65
2022-11-22T22:27:33.491Z,21.23
2022-11-22T22:30:00.707Z,22.73
2022-11-22T22:32:28.036Z,21.58
2022-11-22T22:34:54.976Z,22.38
2022-11-22T22:37:21.726Z,21.77
2022-11-22T22:39:50.652Z,22.75
2022-11-22T22:42:19.429Z,21.75
2022-11-22T22:44:46.442Z,22.02
2022-11-22T22:47:13.611Z,22.80
2022-11-22T22:49:40.464Z,22.88
2022-11-22T22:52:07.245Z,22.55
2022-11-22T22:54:34.068Z,23.38
2022-11-22T22:57:01.083Z,24.58
2022-11-22T22:59:31.346Z,23.25
2022-11-22T23:01:58.169Z,23.40
2022-11-22T23:04:24.951Z,22.98
2022-11-22T23:06:51.603Z,22.95
2022-11-22T23:09:18.544Z,22.95
2022-11-22T23:12:04.039Z,23.10
2022-11-22T23:14:33.773Z,22.67
2022-11-22T23:17:00.549Z,24.25
2022-11-22T23:19:27.770Z,23.42
2022-11-22T23:21:55.454Z,22.98
2022-11-22T23:24:22.207Z,22.95
2022-11-22T23:26:48.887Z,22.95
2022-11-22T23:29:18.690Z,23.38
2022-11-22T23:31:45.403Z,23.33
2022-11-22T23:34:13.450Z,24.02
2022-11-22T23:36:41.266Z,24.00
2022-11-22T23:39:11.757Z,23.13
2022-11-22T23:41:38.412Z,24.08
2022-11-22T23:44:05.305Z,22.40
2022-11-22T23:46:32.425Z,22.60
2022-11-22T23:49:00.469Z,24.02
2022-11-22T23:51:28.550Z,22.98
2022-11-22T23:53:57.099Z,24.00
2022-11-22T23:56:24.208Z,23.38
2022-11-22T23:58:51.553Z,26.40
